sensor_id;sensor_type;location;lat;lon;timestamp;temperature;humidity
76291;DHT22;65100;46.884;17.410;2023-07-16T07:13:05;33.08;49.44
76291;DHT22;65100;46.884;17.410;2023-07-16T07:15:51;32.96;49.00
76291;DHT22;65100;46.884;17.410;2023-07-16T07:18:16;33.11;49.38
76291;DHT22;65100;46.884;17.410;2023-07-16T07:20:42;32.91;48.34
76291;DHT22;65100;46.884;17.410;2023-07-16T07:23:07;33.30;46.41
76291;DHT22;65100;46.884;17.410;2023-07-16T07:25:33;33.49;46.15
76291;DHT22;65100;46.884;17.410;2023-07-16T07:27:59;33.43;47.65
76291;DHT22;65100;46.884;17.410;2023-07-16T07:30:25;34.03;45.60
76291;DHT22;65100;46.884;17.410;2023-07-16T07:32:50;34.06;45.80
76291;DHT22;65100;46.884;17.410;2023-07-16T07:35:16;34.20;45.06
76291;DHT22;65100;46.884;17.410;2023-07-16T07:37:41;34.68;44.02
76291;DHT22;65100;46.884;17.410;2023-07-16T07:40:07;34.74;44.42
76291;DHT22;65100;46.884;17.410;2023-07-16T07:42:33;34.64;44.78
76291;DHT22;65100;46.884;17.410;2023-07-16T07:44:58;34.39;46.01
76291;DHT22;65100;46.884;17.410;2023-07-16T07:47:24;34.24;45.56
76291;DHT22;65100;46.884;17.410;2023-07-16T07:49:51;34.48;45.14
76291;DHT22;65100;46.884;17.410;2023-07-16T07:52:17;34.94;43.70
76291;DHT22;65100;46.884;17.410;2023-07-16T07:54:42;34.84;44.05
76291;DHT22;65100;46.884;17.410;2023-07-16T07:57:08;35.22;44.13
76291;DHT22;65100;46.884;17.410;2023-07-16T07:59:33;35.99;44.00
76291;DHT22;65100;46.884;17.410;2023-07-16T08:01:59;36.41;42.21
76291;DHT22;65100;46.884;17.410;2023-07-16T08:04:26;36.70;40.78
76291;DHT22;65100;46.884;17.410;2023-07-16T08:06:53;36.83;42.26
76291;DHT22;65100;46.884;17.410;2023-07-16T08:09:19;36.54;40.98
76291;DHT22;65100;46.884;17.410;2023-07-16T08:11:44;35.81;43.49
76291;DHT22;65100;46.884;17.410;2023-07-16T08:14:10;35.52;43.83
76291;DHT22;65100;46.884;17.410;2023-07-16T08:16:35;34.97;45.22
76291;DHT22;65100;46.884;17.410;2023-07-16T08:19:01;34.78;45.66
76291;DHT22;65100;46.884;17.410;2023-07-16T08:21:26;34.50;46.45
76291;DHT22;65100;46.884;17.410;2023-07-16T08:23:52;34.10;45.54
76291;DHT22;65100;46.884;17.410;2023-07-16T08:26:17;33.92;46.27
76291;DHT22;65100;46.884;17.410;2023-07-16T08:28:43;33.62;46.76
76291;DHT22;65100;46.884;17.410;2023-07-16T08:31:10;33.35;47.56
76291;DHT22;65100;46.884;17.410;2023-07-16T08:33:37;33.35;47.19
76291;DHT22;65100;46.884;17.410;2023-07-16T08:36:03;33.21;47.92
76291;DHT22;65100;46.884;17.410;2023-07-16T08:38:28;32.85;50.24
76291;DHT22;65100;46.884;17.410;2023-07-16T08:40:54;32.94;49.93
76291;DHT22;65100;46.884;17.410;2023-07-16T08:43:20;32.85;49.70
76291;DHT22;65100;46.884;17.410;2023-07-16T08:45:46;32.78;49.51
76291;DHT22;65100;46.884;17.410;2023-07-16T08:48:12;32.83;51.32
76291;DHT22;65100;46.884;17.410;2023-07-16T08:50:37;32.41;49.29
76291;DHT22;65100;46.884;17.410;2023-07-16T08:53:07;32.35;50.33
76291;DHT22;65100;46.884;17.410;2023-07-16T08:55:33;32.38;50.25
76291;DHT22;65100;46.884;17.410;2023-07-16T08:57:59;32.34;50.37
76291;DHT22;65100;46.884;17.410;2023-07-16T09:00:26;32.24;50.68
76291;DHT22;65100;46.884;17.410;2023-07-16T09:02:52;32.29;50.72
76291;DHT22;65100;46.884;17.410;2023-07-16T09:05:22;32.32;50.82
76291;DHT22;65100;46.884;17.410;2023-07-16T09:07:48;32.45;51.11
76291;DHT22;65100;46.884;17.410;2023-07-16T09:10:13;32.45;51.86
76291;DHT22;65100;46.884;17.410;2023-07-16T09:12:46;32.38;50.63
76291;DHT22;65100;46.884;17.410;2023-07-16T09:15:16;32.24;50.25
76291;DHT22;65100;46.884;17.410;2023-07-16T09:17:46;32.25;51.14
76291;DHT22;65100;46.884;17.410;2023-07-16T09:20:15;32.42;50.59
76291;DHT22;65100;46.884;17.410;2023-07-16T09:22:40;32.58;51.21
76291;DHT22;65100;46.884;17.410;2023-07-16T09:25:06;32.74;50.27
76291;DHT22;65100;46.884;17.410;2023-07-16T09:27:31;32.75;50.16
76291;DHT22;65100;46.884;17.410;2023-07-16T09:29:59;32.82;49.92
76291;DHT22;65100;46.884;17.410;2023-07-16T09:32:37;32.98;48.55
76291;DHT22;65100;46.884;17.410;2023-07-16T09:35:13;32.85;48.59
76291;DHT22;65100;46.884;17.410;2023-07-16T09:37:39;33.21;49.26
76291;DHT22;65100;46.884;17.410;2023-07-16T09:40:09;33.19;47.45
76291;DHT22;65100;46.884;17.410;2023-07-16T09:42:40;33.09;47.47
76291;DHT22;65100;46.884;17.410;2023-07-16T09:45:08;33.14;47.87
76291;DHT22;65100;46.884;17.410;2023-07-16T09:47:35;33.39;47.13
76291;DHT22;65100;46.884;17.410;2023-07-16T09:50:02;33.21;47.99
76291;DHT22;65100;46.884;17.410;2023-07-16T09:52:27;33.11;48.59
76291;DHT22;65100;46.884;17.410;2023-07-16T09:54:55;32.98;47.97
76291;DHT22;65100;46.884;17.410;2023-07-16T09:57:22;32.85;48.10
76291;DHT22;65100;46.884;17.410;2023-07-16T09:59:50;32.76;48.79
76291;DHT22;65100;46.884;17.410;2023-07-16T10:02:18;32.78;49.47
76291;DHT22;65100;46.884;17.410;2023-07-16T10:04:45;32.54;48.94
76291;DHT22;65100;46.884;17.410;2023-07-16T10:07:21;32.48;49.60
76291;DHT22;65100;46.884;17.410;2023-07-16T10:09:57;32.34;49.76
76291;DHT22;65100;46.884;17.410;2023-07-16T10:12:27;32.34;50.44
76291;DHT22;65100;46.884;17.410;2023-07-16T10:14:54;32.37;50.61
76291;DHT22;65100;46.884;17.410;2023-07-16T10:17:25;32.51;49.71
76291;DHT22;65100;46.884;17.410;2023-07-16T10:20:09;32.47;49.07
76291;DHT22;65100;46.884;17.410;2023-07-16T10:22:40;32.47;49.78
76291;DHT22;65100;46.884;17.410;2023-07-16T10:25:26;32.44;49.58
76291;DHT22;65100;46.884;17.410;2023-07-16T10:27:53;32.51;50.91
76291;DHT22;65100;46.884;17.410;2023-07-16T10:30:19;32.61;49.22
76291;DHT22;65100;46.884;17.410;2023-07-16T10:32:45;32.78;50.50
76291;DHT22;65100;46.884;17.410;2023-07-16T10:35:11;32.67;49.63
76291;DHT22;65100;46.884;17.410;2023-07-16T10:37:38;32.54;49.87
76291;DHT22;65100;46.884;17.410;2023-07-16T10:40:05;32.48;50.59
76291;DHT22;65100;46.884;17.410;2023-07-16T10:42:32;32.49;49.33
76291;DHT22;65100;46.884;17.410;2023-07-16T10:44:59;32.62;50.62
76291;DHT22;65100;46.884;17.410;2023-07-16T10:47:36;32.78;50.12
76291;DHT22;65100;46.884;17.410;2023-07-16T10:50:07;32.67;49.87
76291;DHT22;65100;46.884;17.410;2023-07-16T10:52:33;32.52;49.11
76291;DHT22;65100;46.884;17.410;2023-07-16T10:54:59;32.52;49.82
76291;DHT22;65100;46.884;17.410;2023-07-16T10:57:25;32.51;50.76
76291;DHT22;65100;46.884;17.410;2023-07-16T10:59:51;32.49;50.98
76291;DHT22;65100;46.884;17.410;2023-07-16T11:13:51;32.60;50.05
76291;DHT22;65100;46.884;17.410;2023-07-16T11:16:38;32.49;51.19
76291;DHT22;65100;46.884;17.410;2023-07-16T11:19:04;32.42;50.12
76291;DHT22;65100;46.884;17.410;2023-07-16T11:21:32;32.55;51.03
76291;DHT22;65100;46.884;17.410;2023-07-16T11:24:10;32.48;51.76
76291;DHT22;65100;46.884;17.410;2023-07-16T11:26:37;32.51;50.86
76291;DHT22;65100;46.884;17.410;2023-07-16T11:29:12;32.60;51.73
76291;DHT22;65100;46.884;17.410;2023-07-16T11:31:39;32.67;50.40
76291;DHT22;65100;46.884;17.410;2023-07-16T11:34:07;32.76;51.55
76291;DHT22;65100;46.884;17.410;2023-07-16T11:36:33;32.75;50.29
76291;DHT22;65100;46.884;17.410;2023-07-16T11:38:59;32.68;50.74
76291;DHT22;65100;46.884;17.410;2023-07-16T11:41:24;32.81;50.96
76291;DHT22;65100;46.884;17.410;2023-07-16T11:43:53;32.75;50.83
76291;DHT22;65100;46.884;17.410;2023-07-16T11:46:19;32.74;50.09
76291;DHT22;65100;46.884;17.410;2023-07-16T11:48:44;32.81;51.62
76291;DHT22;65100;46.884;17.410;2023-07-16T11:51:10;32.72;51.57
76291;DHT22;65100;46.884;17.410;2023-07-16T11:53:35;32.76;51.64
76291;DHT22;65100;46.884;17.410;2023-07-16T11:56:01;32.78;51.02
76291;DHT22;65100;46.884;17.410;2023-07-16T11:58:27;32.78;50.39
76291;DHT22;65100;46.884;17.410;2023-07-16T12:00:53;32.81;51.09
76291;DHT22;65100;46.884;17.410;2023-07-16T12:03:18;32.82;51.03
76291;DHT22;65100;46.884;17.410;2023-07-16T12:05:44;32.94;50.74
76291;DHT22;65100;46.884;17.410;2023-07-16T12:08:09;32.99;50.70
76291;DHT22;65100;46.884;17.410;2023-07-16T12:10:40;32.92;51.25
76291;DHT22;65100;46.884;17.410;2023-07-16T12:13:05;32.86;51.02
76291;DHT22;65100;46.884;17.410;2023-07-16T12:15:31;32.75;50.21
76291;DHT22;65100;46.884;17.410;2023-07-16T12:17:57;32.68;51.14
76291;DHT22;65100;46.884;17.410;2023-07-16T12:20:22;32.62;51.10
76291;DHT22;65100;46.884;17.410;2023-07-16T12:22:48;32.65;50.99
76291;DHT22;65100;46.884;17.410;2023-07-16T12:25:16;32.76;50.90
76291;DHT22;65100;46.884;17.410;2023-07-16T12:27:42;32.81;50.61
76291;DHT22;65100;46.884;17.410;2023-07-16T12:30:07;32.85;49.96
76291;DHT22;65100;46.884;17.410;2023-07-16T12:32:33;32.86;51.00
76291;DHT22;65100;46.884;17.410;2023-07-16T12:34:59;32.91;50.48
76291;DHT22;65100;46.884;17.410;2023-07-16T12:37:26;32.96;50.31
76291;DHT22;65100;46.884;17.410;2023-07-16T12:39:51;32.99;50.22
76291;DHT22;65100;46.884;17.410;2023-07-16T12:42:17;33.11;51.10
76291;DHT22;65100;46.884;17.410;2023-07-16T12:44:42;33.04;49.77
76291;DHT22;65100;46.884;17.410;2023-07-16T12:47:08;33.08;50.29
76291;DHT22;65100;46.884;17.410;2023-07-16T12:49:34;33.19;50.71
76291;DHT22;65100;46.884;17.410;2023-07-16T12:51:59;32.92;51.39
76291;DHT22;65100;46.884;17.410;2023-07-16T12:54:25;32.88;49.46
76291;DHT22;65100;46.884;17.410;2023-07-16T12:56:50;32.98;50.29
76291;DHT22;65100;46.884;17.410;2023-07-16T12:59:17;32.98;50.91
76291;DHT22;65100;46.884;17.410;2023-07-16T13:01:43;32.88;50.35
76291;DHT22;65100;46.884;17.410;2023-07-16T13:04:08;32.86;51.66
76291;DHT22;65100;46.884;17.410;2023-07-16T13:06:34;32.60;51.31
76291;DHT22;65100;46.884;17.410;2023-07-16T13:09:00;32.60;50.87
76291;DHT22;65100;46.884;17.410;2023-07-16T13:11:25;32.75;51.18
76291;DHT22;65100;46.884;17.410;2023-07-16T13:13:51;32.88;50.61
76291;DHT22;65100;46.884;17.410;2023-07-16T13:16:17;32.98;50.34
76291;DHT22;65100;46.884;17.410;2023-07-16T13:18:42;32.99;50.16
76291;DHT22;65100;46.884;17.410;2023-07-16T13:21:08;33.09;49.55
76291;DHT22;65100;46.884;17.410;2023-07-16T13:23:34;33.18;49.09
76291;DHT22;65100;46.884;17.410;2023-07-16T13:26:01;33.27;49.33
76291;DHT22;65100;46.884;17.410;2023-07-16T13:28:26;33.32;49.92
76291;DHT22;65100;46.884;17.410;2023-07-16T13:30:53;33.36;49.48
76291;DHT22;65100;46.884;17.410;2023-07-16T13:33:18;33.32;49.06
76291;DHT22;65100;46.884;17.410;2023-07-16T13:35:44;33.29;49.62
76291;DHT22;65100;46.884;17.410;2023-07-16T13:38:10;33.27;49.30
76291;DHT22;65100;46.884;17.410;2023-07-16T13:40:35;33.23;49.21
76291;DHT22;65100;46.884;17.410;2023-07-16T13:43:01;33.33;49.64
76291;DHT22;65100;46.884;17.410;2023-07-16T13:45:30;33.25;50.39
76291;DHT22;65100;46.884;17.410;2023-07-16T13:47:56;33.33;50.60
76291;DHT22;65100;46.884;17.410;2023-07-16T13:50:21;33.36;50.18
76291;DHT22;65100;46.884;17.410;2023-07-16T13:52:47;33.27;48.90
76291;DHT22;65100;46.884;17.410;2023-07-16T13:55:12;33.15;49.93
76291;DHT22;65100;46.884;17.410;2023-07-16T13:57:38;33.22;48.99
76291;DHT22;65100;46.884;17.410;2023-07-16T14:00:04;33.26;47.93
76291;DHT22;65100;46.884;17.410;2023-07-16T14:02:30;33.33;49.34
76291;DHT22;65100;46.884;17.410;2023-07-16T14:04:59;33.41;49.76
76291;DHT22;65100;46.884;17.410;2023-07-16T14:07:24;33.21;48.75
76291;DHT22;65100;46.884;17.410;2023-07-16T14:09:50;33.29;49.40
76291;DHT22;65100;46.884;17.410;2023-07-16T14:12:15;33.42;47.54
76291;DHT22;65100;46.884;17.410;2023-07-16T14:14:40;33.35;47.13
76291;DHT22;65100;46.884;17.410;2023-07-16T14:17:06;33.41;48.03
76291;DHT22;65100;46.884;17.410;2023-07-16T14:19:31;33.39;48.10
76291;DHT22;65100;46.884;17.410;2023-07-16T14:21:57;33.47;47.62
76291;DHT22;65100;46.884;17.410;2023-07-16T14:24:22;33.47;48.30
76291;DHT22;65100;46.884;17.410;2023-07-16T14:26:48;33.46;47.91
76291;DHT22;65100;46.884;17.410;2023-07-16T14:29:14;33.45;47.79
76291;DHT22;65100;46.884;17.410;2023-07-16T14:31:40;33.22;47.84
76291;DHT22;65100;46.884;17.410;2023-07-16T14:34:06;33.25;49.13
76291;DHT22;65100;46.884;17.410;2023-07-16T14:36:31;33.27;48.77
76291;DHT22;65100;46.884;17.410;2023-07-16T14:38:57;33.36;48.91
76291;DHT22;65100;46.884;17.410;2023-07-16T14:41:23;33.33;48.42
76291;DHT22;65100;46.884;17.410;2023-07-16T14:43:49;33.27;48.73
76291;DHT22;65100;46.884;17.410;2023-07-16T14:46:16;33.14;48.57
76291;DHT22;65100;46.884;17.410;2023-07-16T14:48:46;33.01;50.25
76291;DHT22;65100;46.884;17.410;2023-07-16T14:51:12;33.18;48.53
76291;DHT22;65100;46.884;17.410;2023-07-16T14:53:38;33.18;49.45
76291;DHT22;65100;46.884;17.410;2023-07-16T14:56:04;33.30;49.42
76291;DHT22;65100;46.884;17.410;2023-07-16T14:58:32;33.33;49.81
76291;DHT22;65100;46.884;17.410;2023-07-16T15:01:01;33.32;48.50
76291;DHT22;65100;46.884;17.410;2023-07-16T15:03:34;33.37;48.28
76291;DHT22;65100;46.884;17.410;2023-07-16T15:06:00;33.35;48.50
76291;DHT22;65100;46.884;17.410;2023-07-16T15:08:25;33.32;49.14
76291;DHT22;65100;46.884;17.410;2023-07-16T15:10:58;33.35;48.16
76291;DHT22;65100;46.884;17.410;2023-07-16T15:13:24;33.36;48.61
76291;DHT22;65100;46.884;17.410;2023-07-16T15:15:55;33.22;48.91
76291;DHT22;65100;46.884;17.410;2023-07-16T15:18:22;33.18;49.18
76291;DHT22;65100;46.884;17.410;2023-07-16T15:20:48;33.15;48.84
76291;DHT22;65100;46.884;17.410;2023-07-16T15:23:14;33.14;49.31
76291;DHT22;65100;46.884;17.410;2023-07-16T15:25:42;33.25;49.21
76291;DHT22;65100;46.884;17.410;2023-07-16T15:28:11;33.35;48.81
76291;DHT22;65100;46.884;17.410;2023-07-16T15:30:37;33.29;48.60
76291;DHT22;65100;46.884;17.410;2023-07-16T15:33:03;33.29;49.15
76291;DHT22;65100;46.884;17.410;2023-07-16T15:35:28;33.23;49.80
76291;DHT22;65100;46.884;17.410;2023-07-16T15:37:54;33.26;50.31
76291;DHT22;65100;46.884;17.410;2023-07-16T15:40:22;33.30;49.26
76291;DHT22;65100;46.884;17.410;2023-07-16T15:42:48;33.32;49.06
76291;DHT22;65100;46.884;17.410;2023-07-16T15:45:13;33.25;49.17
76291;DHT22;65100;46.884;17.410;2023-07-16T15:47:41;33.35;49.27
76291;DHT22;65100;46.884;17.410;2023-07-16T15:50:06;33.36;48.24
76291;DHT22;65100;46.884;17.410;2023-07-16T15:52:32;33.32;49.48
76291;DHT22;65100;46.884;17.410;2023-07-16T15:54:58;33.18;49.10
76291;DHT22;65100;46.884;17.410;2023-07-16T15:57:23;33.21;49.71
76291;DHT22;65100;46.884;17.410;2023-07-16T15:59:49;33.08;49.90
76291;DHT22;65100;46.884;17.410;2023-07-16T16:02:14;33.06;50.20
76291;DHT22;65100;46.884;17.410;2023-07-16T16:04:40;33.08;50.26
76291;DHT22;65100;46.884;17.410;2023-07-16T16:07:08;33.11;51.07
76291;DHT22;65100;46.884;17.410;2023-07-16T16:09:36;33.08;50.20
76291;DHT22;65100;46.884;17.410;2023-07-16T16:12:01;33.05;50.04
76291;DHT22;65100;46.884;17.410;2023-07-16T16:14:28;33.21;50.04
76291;DHT22;65100;46.884;17.410;2023-07-16T16:16:54;33.22;50.09
76291;DHT22;65100;46.884;17.410;2023-07-16T16:19:22;33.08;50.02
76291;DHT22;65100;46.884;17.410;2023-07-16T16:21:48;33.05;50.52
76291;DHT22;65100;46.884;17.410;2023-07-16T16:24:13;33.05;50.06
76291;DHT22;65100;46.884;17.410;2023-07-16T16:26:38;32.91;51.72
76291;DHT22;65100;46.884;17.410;2023-07-16T16:29:04;32.98;51.03
76291;DHT22;65100;46.884;17.410;2023-07-16T16:31:29;32.91;50.54
76291;DHT22;65100;46.884;17.410;2023-07-16T16:33:55;32.83;51.92
76291;DHT22;65100;46.884;17.410;2023-07-16T16:36:20;32.81;51.78
76291;DHT22;65100;46.884;17.410;2023-07-16T16:38:46;32.78;51.30
76291;DHT22;65100;46.884;17.410;2023-07-16T16:41:12;32.76;51.76
76291;DHT22;65100;46.884;17.410;2023-07-16T16:43:38;32.72;51.01
76291;DHT22;65100;46.884;17.410;2023-07-16T16:46:04;32.52;51.04
76291;DHT22;65100;46.884;17.410;2023-07-16T16:48:29;32.47;51.42
76291;DHT22;65100;46.884;17.410;2023-07-16T16:51:00;32.47;51.02
76291;DHT22;65100;46.884;17.410;2023-07-16T16:53:26;32.44;51.41
76291;DHT22;65100;46.884;17.410;2023-07-16T16:55:52;32.45;51.15
76291;DHT22;65100;46.884;17.410;2023-07-16T16:58:17;32.37;50.79
76291;DHT22;65100;46.884;17.410;2023-07-16T17:00:46;32.32;51.85
76291;DHT22;65100;46.884;17.410;2023-07-16T17:03:14;32.21;52.75
76291;DHT22;65100;46.884;17.410;2023-07-16T17:05:39;32.23;53.20
76291;DHT22;65100;46.884;17.410;2023-07-16T17:08:04;32.27;53.15
76291;DHT22;65100;46.884;17.410;2023-07-16T17:10:30;32.21;51.72
76291;DHT22;65100;46.884;17.410;2023-07-16T17:12:56;32.24;53.08
76291;DHT22;65100;46.884;17.410;2023-07-16T17:15:23;31.73;57.14
76291;DHT22;65100;46.884;17.410;2023-07-16T17:17:49;31.69;57.63
76291;DHT22;65100;46.884;17.410;2023-07-16T17:20:14;31.69;58.50
76291;DHT22;65100;46.884;17.410;2023-07-16T17:22:40;31.49;59.01
76291;DHT22;65100;46.884;17.410;2023-07-16T17:25:06;31.30;59.53
76291;DHT22;65100;46.884;17.410;2023-07-16T17:27:33;31.06;60.81
76291;DHT22;65100;46.884;17.410;2023-07-16T17:29:58;31.04;61.00
76291;DHT22;65100;46.884;17.410;2023-07-16T17:32:24;30.90;61.82
76291;DHT22;65100;46.884;17.410;2023-07-16T17:34:50;31.00;61.16
76291;DHT22;65100;46.884;17.410;2023-07-16T17:37:15;30.89;60.79
76291;DHT22;65100;46.884;17.410;2023-07-16T17:39:42;30.97;60.18
76291;DHT22;65100;46.884;17.410;2023-07-16T17:42:09;30.89;60.81
76291;DHT22;65100;46.884;17.410;2023-07-16T17:44:36;30.87;61.23
76291;DHT22;65100;46.884;17.410;2023-07-16T17:47:01;30.79;61.20
76291;DHT22;65100;46.884;17.410;2023-07-16T17:49:27;30.42;62.12
76291;DHT22;65100;46.884;17.410;2023-07-16T17:51:53;30.58;61.79
76291;DHT22;65100;46.884;17.410;2023-07-16T17:54:21;30.32;62.87
76291;DHT22;65100;46.884;17.410;2023-07-16T17:56:48;30.48;63.28
76291;DHT22;65100;46.884;17.410;2023-07-16T17:59:14;30.42;63.17
76291;DHT22;65100;46.884;17.410;2023-07-16T18:01:39;30.39;63.01
76291;DHT22;65100;46.884;17.410;2023-07-16T18:04:06;30.55;63.44
76291;DHT22;65100;46.884;17.410;2023-07-16T18:06:31;30.61;63.96
76291;DHT22;65100;46.884;17.410;2023-07-16T18:08:57;30.49;65.00
76291;DHT22;65100;46.884;17.410;2023-07-16T18:11:23;30.31;66.33
76291;DHT22;65100;46.884;17.410;2023-07-16T18:13:48;30.00;67.65
76291;DHT22;65100;46.884;17.410;2023-07-16T18:16:14;29.89;68.51
76291;DHT22;65100;46.884;17.410;2023-07-16T18:18:40;29.84;68.47
76291;DHT22;65100;46.884;17.410;2023-07-16T18:21:06;29.60;69.30
76291;DHT22;65100;46.884;17.410;2023-07-16T18:23:31;29.38;70.66
76291;DHT22;65100;46.884;17.410;2023-07-16T18:25:57;29.34;70.69
76291;DHT22;65100;46.884;17.410;2023-07-16T18:28:22;29.29;70.45
76291;DHT22;65100;46.884;17.410;2023-07-16T18:30:49;29.35;70.22
76291;DHT22;65100;46.884;17.410;2023-07-16T18:33:14;29.33;71.16
76291;DHT22;65100;46.884;17.410;2023-07-16T18:35:41;29.33;71.40
76291;DHT22;65100;46.884;17.410;2023-07-16T18:38:10;29.23;70.48
76291;DHT22;65100;46.884;17.410;2023-07-16T18:40:36;29.07;71.07
76291;DHT22;65100;46.884;17.410;2023-07-16T18:43:01;28.86;72.13
76291;DHT22;65100;46.884;17.410;2023-07-16T18:45:29;28.62;72.82
76291;DHT22;65100;46.884;17.410;2023-07-16T18:47:55;28.42;74.06
76291;DHT22;65100;46.884;17.410;2023-07-16T18:50:21;28.29;74.45
76291;DHT22;65100;46.884;17.410;2023-07-16T18:52:46;28.16;74.79
76291;DHT22;65100;46.884;17.410;2023-07-16T18:55:12;27.81;76.37
76291;DHT22;65100;46.884;17.410;2023-07-16T18:57:38;27.77;76.92
76291;DHT22;65100;46.884;17.410;2023-07-16T19:00:04;27.36;78.87
76291;DHT22;65100;46.884;17.410;2023-07-16T19:02:32;27.76;77.34
76291;DHT22;65100;46.884;17.410;2023-07-16T19:04:57;27.82;76.73
76291;DHT22;65100;46.884;17.410;2023-07-16T19:07:23;27.88;76.75
76291;DHT22;65100;46.884;17.410;2023-07-16T19:09:50;27.88;76.19
76291;DHT22;65100;46.884;17.410;2023-07-16T19:12:15;27.81;76.33
76291;DHT22;65100;46.884;17.410;2023-07-16T19:14:41;27.81;76.38
76291;DHT22;65100;46.884;17.410;2023-07-16T19:17:16;27.78;76.77
76291;DHT22;65100;46.884;17.410;2023-07-16T19:19:44;27.61;77.70
76291;DHT22;65100;46.884;17.410;2023-07-16T19:22:10;27.51;78.20
76291;DHT22;65100;46.884;17.410;2023-07-16T19:24:35;27.41;78.66
76291;DHT22;65100;46.884;17.410;2023-07-16T19:27:02;27.22;79.69
76291;DHT22;65100;46.884;17.410;2023-07-16T19:29:27;27.03;80.04
76291;DHT22;65100;46.884;17.410;2023-07-16T19:31:53;27.14;79.39
76291;DHT22;65100;46.884;17.410;2023-07-16T19:34:18;27.06;79.48
76291;DHT22;65100;46.884;17.410;2023-07-16T19:36:44;27.27;78.70
76291;DHT22;65100;46.884;17.410;2023-07-16T19:39:09;27.24;78.60
76291;DHT22;65100;46.884;17.410;2023-07-16T19:41:35;27.11;79.05
76291;DHT22;65100;46.884;17.410;2023-07-16T19:44:00;27.04;78.72
76291;DHT22;65100;46.884;17.410;2023-07-16T19:46:26;27.10;77.92
76291;DHT22;65100;46.884;17.410;2023-07-16T19:48:55;27.08;77.52
76291;DHT22;65100;46.884;17.410;2023-07-16T19:51:20;26.96;78.29
76291;DHT22;65100;46.884;17.410;2023-07-16T19:53:45;26.86;79.05
76291;DHT22;65100;46.884;17.410;2023-07-16T19:56:11;26.49;80.43
76291;DHT22;65100;46.884;17.410;2023-07-16T19:58:36;26.08;81.99
76291;DHT22;65100;46.884;17.410;2023-07-16T20:01:05;26.22;81.51
76291;DHT22;65100;46.884;17.410;2023-07-16T20:03:31;26.39;80.41
76291;DHT22;65100;46.884;17.410;2023-07-16T20:05:58;26.50;79.03
76291;DHT22;65100;46.884;17.410;2023-07-16T20:08:23;26.35;79.21
76291;DHT22;65100;46.884;17.410;2023-07-16T20:10:49;26.21;79.34
76291;DHT22;65100;46.884;17.410;2023-07-16T20:13:17;26.04;80.14
76291;DHT22;65100;46.884;17.410;2023-07-16T20:15:43;25.98;80.31
76291;DHT22;65100;46.884;17.410;2023-07-16T20:18:12;26.19;79.68
76291;DHT22;65100;46.884;17.410;2023-07-16T20:20:38;26.21;79.49
76291;DHT22;65100;46.884;17.410;2023-07-16T20:23:04;26.18;79.53
76291;DHT22;65100;46.884;17.410;2023-07-16T20:25:29;26.09;79.54
76291;DHT22;65100;46.884;17.410;2023-07-16T20:27:56;26.02;79.80
76291;DHT22;65100;46.884;17.410;2023-07-16T20:30:23;25.86;80.26
76291;DHT22;65100;46.884;17.410;2023-07-16T20:32:49;25.74;80.81
76291;DHT22;65100;46.884;17.410;2023-07-16T20:35:14;25.58;81.40
76291;DHT22;65100;46.884;17.410;2023-07-16T20:37:40;25.67;81.06
76291;DHT22;65100;46.884;17.410;2023-07-16T20:40:06;25.67;80.96
76291;DHT22;65100;46.884;17.410;2023-07-16T20:42:38;25.75;80.13
76291;DHT22;65100;46.884;17.410;2023-07-16T20:45:17;25.74;79.64
76291;DHT22;65100;46.884;17.410;2023-07-16T20:47:46;25.67;79.38
76291;DHT22;65100;46.884;17.410;2023-07-16T20:50:12;25.62;79.24
76291;DHT22;65100;46.884;17.410;2023-07-16T20:52:43;25.58;79.51
76291;DHT22;65100;46.884;17.410;2023-07-16T20:55:11;25.48;79.82
76291;DHT22;65100;46.884;17.410;2023-07-16T20:57:38;25.42;80.21
76291;DHT22;65100;46.884;17.410;2023-07-16T21:00:04;25.27;80.88
76291;DHT22;65100;46.884;17.410;2023-07-16T21:02:56;25.23;81.05
76291;DHT22;65100;46.884;17.410;2023-07-16T21:05:25;25.10;81.61
76291;DHT22;65100;46.884;17.410;2023-07-16T21:07:52;24.84;82.27
76291;DHT22;65100;46.884;17.410;2023-07-16T21:10:17;24.82;82.53
76291;DHT22;65100;46.884;17.410;2023-07-16T21:12:50;24.82;82.52
76291;DHT22;65100;46.884;17.410;2023-07-16T21:15:16;25.08;81.78
76291;DHT22;65100;46.884;17.410;2023-07-16T21:17:42;25.27;80.97
76291;DHT22;65100;46.884;17.410;2023-07-16T21:20:08;25.44;80.01
76291;DHT22;65100;46.884;17.410;2023-07-16T21:22:35;25.42;79.98
76291;DHT22;65100;46.884;17.410;2023-07-16T21:25:02;25.34;80.23
76291;DHT22;65100;46.884;17.410;2023-07-16T21:27:29;25.27;79.64
76291;DHT22;65100;46.884;17.410;2023-07-16T21:29:56;25.11;79.80
76291;DHT22;65100;46.884;17.410;2023-07-16T21:32:25;24.88;80.55
76291;DHT22;65100;46.884;17.410;2023-07-16T21:34:51;24.84;80.86
76291;DHT22;65100;46.884;17.410;2023-07-16T21:37:17;24.82;81.06
76291;DHT22;65100;46.884;17.410;2023-07-16T21:39:43;24.82;80.85
76291;DHT22;65100;46.884;17.410;2023-07-16T21:42:09;24.82;80.87
76291;DHT22;65100;46.884;17.410;2023-07-16T21:44:34;24.53;81.70
76291;DHT22;65100;46.884;17.410;2023-07-16T21:47:00;24.64;81.48
76291;DHT22;65100;46.884;17.410;2023-07-16T21:49:26;24.74;81.15
76291;DHT22;65100;46.884;17.410;2023-07-16T21:51:51;24.74;81.03
76291;DHT22;65100;46.884;17.410;2023-07-16T21:54:38;24.62;81.50
76291;DHT22;65100;46.884;17.410;2023-07-16T21:57:24;24.62;80.96
76291;DHT22;65100;46.884;17.410;2023-07-16T21:59:50;24.59;80.79
76291;DHT22;65100;46.884;17.410;2023-07-16T22:02:15;24.53;80.97
76291;DHT22;65100;46.884;17.410;2023-07-16T22:04:43;24.50;80.99
76291;DHT22;65100;46.884;17.410;2023-07-16T22:07:09;24.50;80.98
76291;DHT22;65100;46.884;17.410;2023-07-16T22:09:34;24.52;80.95
76291;DHT22;65100;46.884;17.410;2023-07-16T22:12:00;24.48;81.29
76291;DHT22;65100;46.884;17.410;2023-07-16T22:14:25;24.30;81.95
76291;DHT22;65100;46.884;17.410;2023-07-16T22:16:51;24.25;82.07
76291;DHT22;65100;46.884;17.410;2023-07-16T22:19:18;24.02;83.00
76291;DHT22;65100;46.884;17.410;2023-07-16T22:21:43;24.26;82.23
76291;DHT22;65100;46.884;17.410;2023-07-16T22:24:09;24.44;80.96
76291;DHT22;65100;46.884;17.410;2023-07-16T22:26:34;24.48;80.58
76291;DHT22;65100;46.884;17.410;2023-07-16T22:29:00;24.42;80.08
76291;DHT22;65100;46.884;17.410;2023-07-16T22:31:26;24.30;80.19
76291;DHT22;65100;46.884;17.410;2023-07-16T22:33:52;24.33;80.30
76291;DHT22;65100;46.884;17.410;2023-07-16T22:36:17;24.33;80.20